sensor_id;sensor_type;location;lat;lon;timestamp;pressure;altitude;pressure_sealevel;temperature;humidity
73936;BME280;62287;50.858;0.252;2023-05-15T00:00:17;101530.30;;;15.67;38.70
73936;BME280;62287;50.858;0.252;2023-05-15T00:00:48;101529.54;;;16.12;38.86
73936;BME280;62287;50.858;0.252;2023-05-15T00:01:19;101528.67;;;15.24;39.25
73936;BME280;62287;50.858;0.252;2023-05-15T00:01:50;101527.13;;;15.05;39.57
73936;BME280;62287;50.858;0.252;2023-05-15T00:02:21;101526.88;;;15.87;38.91
73936;BME280;62287;50.858;0.252;2023-05-15T00:02:52;101525.74;;;16.14;38.75
73936;BME280;62287;50.858;0.252;2023-05-15T00:03:23;101524.47;;;15.41;39.27
73936;BME280;62287;50.858;0.252;2023-05-15T00:03:54;101525.24;;;16.28;39.07
73936;BME280;62287;50.858;0.252;2023-05-15T00:04:25;101524.51;;;17.20;38.29
73936;BME280;62287;50.858;0.252;2023-05-15T00:04:56;101523.22;;;17.19;37.82
73936;BME280;62287;50.858;0.252;2023-05-15T00:05:27;101524.25;;;16.95;37.92
73936;BME280;62287;50.858;0.252;2023-05-15T00:05:58;101522.97;;;15.20;39.17
73936;BME280;62287;50.858;0.252;2023-05-15T00:06:29;101522.25;;;16.23;38.51
73936;BME280;62287;50.858;0.252;2023-05-15T00:07:00;101522.48;;;15.87;38.72
73936;BME280;62287;50.858;0.252;2023-05-15T00:07:31;101524.24;;;16.33;38.48
73936;BME280;62287;50.858;0.252;2023-05-15T00:08:02;101522.91;;;16.58;38.62
73936;BME280;62287;50.858;0.252;2023-05-15T00:08:33;101522.35;;;16.74;38.33
73936;BME280;62287;50.858;0.252;2023-05-15T00:09:04;101521.27;;;16.91;38.22
73936;BME280;62287;50.858;0.252;2023-05-15T00:09:35;101521.32;;;17.26;37.89
73936;BME280;62287;50.858;0.252;2023-05-15T00:10:07;101523.07;;;17.08;37.73
73936;BME280;62287;50.858;0.252;2023-05-15T00:10:38;101522.13;;;17.16;37.93
73936;BME280;62287;50.858;0.252;2023-05-15T00:11:09;101520.98;;;17.02;37.95
73936;BME280;62287;50.858;0.252;2023-05-15T00:11:40;101521.83;;;17.78;37.71
73936;BME280;62287;50.858;0.252;2023-05-15T00:12:11;101522.18;;;17.06;38.12
73936;BME280;62287;50.858;0.252;2023-05-15T00:12:42;101522.88;;;16.84;38.31
73936;BME280;62287;50.858;0.252;2023-05-15T00:13:13;101524.65;;;17.44;38.11
73936;BME280;62287;50.858;0.252;2023-05-15T00:13:44;101524.35;;;16.85;37.93
73936;BME280;62287;50.858;0.252;2023-05-15T00:14:15;101522.35;;;17.02;37.78
73936;BME280;62287;50.858;0.252;2023-05-15T00:14:46;101520.45;;;18.08;37.61
73936;BME280;62287;50.858;0.252;2023-05-15T00:15:17;101521.44;;;17.21;37.75
73936;BME280;62287;50.858;0.252;2023-05-15T00:15:48;101522.65;;;17.09;37.66
73936;BME280;62287;50.858;0.252;2023-05-15T00:16:19;101521.66;;;17.75;37.67
73936;BME280;62287;50.858;0.252;2023-05-15T00:16:50;101520.81;;;16.90;38.01
73936;BME280;62287;50.858;0.252;2023-05-15T00:17:21;101520.21;;;16.00;38.80
73936;BME280;62287;50.858;0.252;2023-05-15T00:17:52;101519.12;;;16.31;38.32
73936;BME280;62287;50.858;0.252;2023-05-15T00:18:23;101518.91;;;16.38;38.19
73936;BME280;62287;50.858;0.252;2023-05-15T00:18:54;101517.25;;;15.94;38.57
73936;BME280;62287;50.858;0.252;2023-05-15T00:19:25;101516.50;;;15.47;39.21
73936;BME280;62287;50.858;0.252;2023-05-15T00:19:56;101518.27;;;16.20;38.47
73936;BME280;62287;50.858;0.252;2023-05-15T00:20:27;101516.76;;;15.92;39.29
73936;BME280;62287;50.858;0.252;2023-05-15T00:20:58;101518.25;;;16.43;39.03
73936;BME280;62287;50.858;0.252;2023-05-15T00:21:29;101516.96;;;16.53;38.33
73936;BME280;62287;50.858;0.252;2023-05-15T00:22:00;101516.65;;;17.48;37.84
73936;BME280;62287;50.858;0.252;2023-05-15T00:22:31;101513.77;;;17.65;37.53
73936;BME280;62287;50.858;0.252;2023-05-15T00:23:02;101513.24;;;17.18;37.63
73936;BME280;62287;50.858;0.252;2023-05-15T00:23:33;101511.78;;;17.59;37.63
73936;BME280;62287;50.858;0.252;2023-05-15T00:24:05;101514.56;;;17.25;37.60
73936;BME280;62287;50.858;0.252;2023-05-15T00:24:36;101513.13;;;17.27;37.63
73936;BME280;62287;50.858;0.252;2023-05-15T00:25:07;101514.21;;;17.53;37.38
73936;BME280;62287;50.858;0.252;2023-05-15T00:25:43;101513.91;;;17.42;37.37
73936;BME280;62287;50.858;0.252;2023-05-15T00:26:14;101517.17;;;17.31;37.73
73936;BME280;62287;50.858;0.252;2023-05-15T00:26:45;101513.56;;;17.19;37.53
73936;BME280;62287;50.858;0.252;2023-05-15T00:27:16;101513.72;;;17.25;37.38
73936;BME280;62287;50.858;0.252;2023-05-15T00:27:47;101513.55;;;17.74;37.37
73936;BME280;62287;50.858;0.252;2023-05-15T00:28:18;101517.26;;;16.72;37.75
73936;BME280;62287;50.858;0.252;2023-05-15T00:28:50;101514.99;;;15.90;38.58
73936;BME280;62287;50.858;0.252;2023-05-15T00:29:21;101515.10;;;15.22;39.18
73936;BME280;62287;50.858;0.252;2023-05-15T00:29:52;101514.43;;;15.45;39.72
73936;BME280;62287;50.858;0.252;2023-05-15T00:30:23;101511.17;;;14.33;40.17
73936;BME280;62287;50.858;0.252;2023-05-15T00:30:54;101512.73;;;14.86;39.74
73936;BME280;62287;50.858;0.252;2023-05-15T00:31:25;101510.93;;;15.20;39.38
73936;BME280;62287;50.858;0.252;2023-05-15T00:31:56;101510.65;;;16.51;38.56
73936;BME280;62287;50.858;0.252;2023-05-15T00:32:27;101510.64;;;17.02;38.17
73936;BME280;62287;50.858;0.252;2023-05-15T00:32:59;101510.61;;;16.51;38.26
73936;BME280;62287;50.858;0.252;2023-05-15T00:33:29;101511.56;;;16.84;37.91
73936;BME280;62287;50.858;0.252;2023-05-15T00:34:01;101508.52;;;16.48;38.19
73936;BME280;62287;50.858;0.252;2023-05-15T00:34:32;101508.65;;;15.97;38.64
73936;BME280;62287;50.858;0.252;2023-05-15T00:35:03;101508.53;;;17.05;38.25
73936;BME280;62287;50.858;0.252;2023-05-15T00:35:35;101508.14;;;16.92;38.13
73936;BME280;62287;50.858;0.252;2023-05-15T00:36:06;101507.63;;;16.82;38.22
73936;BME280;62287;50.858;0.252;2023-05-15T00:36:38;101507.28;;;17.00;37.93
73936;BME280;62287;50.858;0.252;2023-05-15T00:37:09;101505.01;;;17.28;37.76
73936;BME280;62287;50.858;0.252;2023-05-15T00:37:40;101503.69;;;16.75;38.31
73936;BME280;62287;50.858;0.252;2023-05-15T00:38:11;101502.01;;;16.96;38.09
73936;BME280;62287;50.858;0.252;2023-05-15T00:38:42;101503.01;;;16.50;38.12
73936;BME280;62287;50.858;0.252;2023-05-15T00:39:13;101501.77;;;17.14;37.87
73936;BME280;62287;50.858;0.252;2023-05-15T00:39:44;101501.76;;;17.26;38.15
73936;BME280;62287;50.858;0.252;2023-05-15T00:40:20;101500.98;;;16.81;38.03
73936;BME280;62287;50.858;0.252;2023-05-15T00:40:54;101499.30;;;17.52;37.79
73936;BME280;62287;50.858;0.252;2023-05-15T00:41:26;101497.18;;;17.50;37.80
73936;BME280;62287;50.858;0.252;2023-05-15T00:41:57;101496.52;;;16.95;37.87
73936;BME280;62287;50.858;0.252;2023-05-15T00:42:30;101497.72;;;17.10;37.69
73936;BME280;62287;50.858;0.252;2023-05-15T00:43:01;101499.68;;;17.59;37.62
73936;BME280;62287;50.858;0.252;2023-05-15T00:43:34;101496.33;;;17.49;37.48
73936;BME280;62287;50.858;0.252;2023-05-15T00:44:06;101497.12;;;17.94;37.58
73936;BME280;62287;50.858;0.252;2023-05-15T00:44:39;101496.40;;;17.04;37.68
73936;BME280;62287;50.858;0.252;2023-05-15T00:45:12;101499.26;;;16.50;38.15
73936;BME280;62287;50.858;0.252;2023-05-15T00:45:44;101499.06;;;15.92;38.57
73936;BME280;62287;50.858;0.252;2023-05-15T00:46:16;101499.92;;;15.65;38.85
73936;BME280;62287;50.858;0.252;2023-05-15T00:46:48;101499.35;;;15.24;39.21
73936;BME280;62287;50.858;0.252;2023-05-15T00:47:21;101501.52;;;15.59;39.19
73936;BME280;62287;50.858;0.252;2023-05-15T00:47:53;101500.25;;;16.06;39.28
73936;BME280;62287;50.858;0.252;2023-05-15T00:48:24;101500.61;;;15.51;39.00
73936;BME280;62287;50.858;0.252;2023-05-15T00:48:56;101499.03;;;14.99;39.34
73936;BME280;62287;50.858;0.252;2023-05-15T00:49:28;101498.55;;;15.17;40.08
73936;BME280;62287;50.858;0.252;2023-05-15T00:50:00;101499.97;;;14.78;39.77
73936;BME280;62287;50.858;0.252;2023-05-15T00:50:31;101499.63;;;16.35;39.04
73936;BME280;62287;50.858;0.252;2023-05-15T00:51:02;101497.89;;;14.92;39.58
73936;BME280;62287;50.858;0.252;2023-05-15T00:51:34;101498.05;;;15.06;40.02
73936;BME280;62287;50.858;0.252;2023-05-15T00:52:06;101497.03;;;15.41;39.74
73936;BME280;62287;50.858;0.252;2023-05-15T00:52:37;101496.66;;;14.69;39.72
73936;BME280;62287;50.858;0.252;2023-05-15T00:53:09;101496.88;;;14.58;40.25
73936;BME280;62287;50.858;0.252;2023-05-15T00:53:45;101497.37;;;15.05;39.81
73936;BME280;62287;50.858;0.252;2023-05-15T00:54:16;101495.56;;;15.68;39.51
73936;BME280;62287;50.858;0.252;2023-05-15T00:54:47;101496.17;;;16.48;38.79
73936;BME280;62287;50.858;0.252;2023-05-15T00:55:19;101493.45;;;16.09;38.85
73936;BME280;62287;50.858;0.252;2023-05-15T00:55:51;101493.33;;;15.13;39.98
73936;BME280;62287;50.858;0.252;2023-05-15T00:56:24;101494.01;;;14.66;40.16
73936;BME280;62287;50.858;0.252;2023-05-15T00:56:58;101491.09;;;15.84;39.41
73936;BME280;62287;50.858;0.252;2023-05-15T00:57:30;101492.44;;;15.38;39.94
73936;BME280;62287;50.858;0.252;2023-05-15T00:58:02;101493.13;;;15.42;39.99
73936;BME280;62287;50.858;0.252;2023-05-15T00:58:33;101493.61;;;16.11;39.41
73936;BME280;62287;50.858;0.252;2023-05-15T00:59:06;101492.38;;;16.67;39.08
73936;BME280;62287;50.858;0.252;2023-05-15T00:59:38;101492.65;;;16.70;38.67
73936;BME280;62287;50.858;0.252;2023-05-15T01:00:10;101492.26;;;16.53;38.68
73936;BME280;62287;50.858;0.252;2023-05-15T01:00:42;101493.67;;;16.50;38.68
73936;BME280;62287;50.858;0.252;2023-05-15T01:01:15;101493.93;;;16.92;38.39
73936;BME280;62287;50.858;0.252;2023-05-15T01:01:47;101491.14;;;15.31;39.59
73936;BME280;62287;50.858;0.252;2023-05-15T01:02:18;101492.45;;;15.97;39.48
73936;BME280;62287;50.858;0.252;2023-05-15T01:02:49;101491.46;;;15.20;40.01
73936;BME280;62287;50.858;0.252;2023-05-15T01:03:20;101490.61;;;16.04;39.36
73936;BME280;62287;50.858;0.252;2023-05-15T01:03:51;101490.62;;;15.12;39.76
73936;BME280;62287;50.858;0.252;2023-05-15T01:04:22;101490.15;;;15.64;39.63
73936;BME280;62287;50.858;0.252;2023-05-15T01:04:53;101491.19;;;14.78;40.44
73936;BME280;62287;50.858;0.252;2023-05-15T01:05:24;101490.00;;;14.85;40.25
73936;BME280;62287;50.858;0.252;2023-05-15T01:05:55;101489.43;;;14.49;40.73
73936;BME280;62287;50.858;0.252;2023-05-15T01:06:26;101487.82;;;13.49;41.21
73936;BME280;62287;50.858;0.252;2023-05-15T01:06:58;101487.42;;;12.98;41.62
73936;BME280;62287;50.858;0.252;2023-05-15T01:07:30;101488.62;;;15.21;40.40
73936;BME280;62287;50.858;0.252;2023-05-15T01:08:09;101489.09;;;15.42;40.17
73936;BME280;62287;50.858;0.252;2023-05-15T01:08:45;101488.03;;;16.31;39.44
73936;BME280;62287;50.858;0.252;2023-05-15T01:09:17;101489.74;;;16.86;38.92
73936;BME280;62287;50.858;0.252;2023-05-15T01:09:48;101489.71;;;16.81;38.52
73936;BME280;62287;50.858;0.252;2023-05-15T01:10:20;101490.17;;;16.84;38.68
73936;BME280;62287;50.858;0.252;2023-05-15T01:10:53;101488.83;;;17.14;38.56
73936;BME280;62287;50.858;0.252;2023-05-15T01:11:27;101487.37;;;17.16;38.54
73936;BME280;62287;50.858;0.252;2023-05-15T01:11:59;101490.77;;;17.36;38.40
73936;BME280;62287;50.858;0.252;2023-05-15T01:12:33;101489.67;;;16.98;38.45
73936;BME280;62287;50.858;0.252;2023-05-15T01:13:06;101487.74;;;17.30;38.18
73936;BME280;62287;50.858;0.252;2023-05-15T01:13:39;101486.78;;;17.79;37.70
73936;BME280;62287;50.858;0.252;2023-05-15T01:14:10;101490.58;;;16.82;38.45
73936;BME280;62287;50.858;0.252;2023-05-15T01:14:41;101487.92;;;16.66;38.35
73936;BME280;62287;50.858;0.252;2023-05-15T01:15:12;101488.62;;;16.07;38.46
73936;BME280;62287;50.858;0.252;2023-05-15T01:15:43;101489.57;;;15.83;39.06
73936;BME280;62287;50.858;0.252;2023-05-15T01:16:21;101490.30;;;15.67;39.32
73936;BME280;62287;50.858;0.252;2023-05-15T01:16:52;101487.36;;;15.64;39.61
73936;BME280;62287;50.858;0.252;2023-05-15T01:17:23;101487.04;;;14.67;39.89
73936;BME280;62287;50.858;0.252;2023-05-15T01:17:54;101487.03;;;15.45;39.73
73936;BME280;62287;50.858;0.252;2023-05-15T01:18:25;101487.71;;;16.13;39.20
73936;BME280;62287;50.858;0.252;2023-05-15T01:18:56;101488.48;;;16.16;39.10
73936;BME280;62287;50.858;0.252;2023-05-15T01:19:27;101486.19;;;16.07;39.01
73936;BME280;62287;50.858;0.252;2023-05-15T01:19:59;101486.36;;;15.17;39.23
73936;BME280;62287;50.858;0.252;2023-05-15T01:20:49;101486.03;;;15.11;39.56
73936;BME280;62287;50.858;0.252;2023-05-15T01:21:45;101485.70;;;16.04;38.97
73936;BME280;62287;50.858;0.252;2023-05-15T01:22:34;101483.75;;;15.75;39.23
73936;BME280;62287;50.858;0.252;2023-05-15T01:23:14;101484.57;;;15.33;39.28
73936;BME280;62287;50.858;0.252;2023-05-15T01:24:00;101485.99;;;15.69;39.35
73936;BME280;62287;50.858;0.252;2023-05-15T01:24:47;101487.87;;;14.80;39.49
73936;BME280;62287;50.858;0.252;2023-05-15T01:25:51;101488.74;;;14.79;40.05
73936;BME280;62287;50.858;0.252;2023-05-15T01:26:54;101485.92;;;14.76;40.23
73936;BME280;62287;50.858;0.252;2023-05-15T01:27:30;101487.01;;;14.68;39.99
73936;BME280;62287;50.858;0.252;2023-05-15T01:28:08;101487.20;;;15.02;39.94
73936;BME280;62287;50.858;0.252;2023-05-15T01:28:46;101487.33;;;14.27;40.66
73936;BME280;62287;50.858;0.252;2023-05-15T01:29:23;101486.52;;;14.30;40.66
73936;BME280;62287;50.858;0.252;2023-05-15T01:30:01;101485.65;;;14.69;40.29
73936;BME280;62287;50.858;0.252;2023-05-15T01:30:35;101487.79;;;14.42;40.54
73936;BME280;62287;50.858;0.252;2023-05-15T01:31:13;101485.84;;;14.44;40.80
73936;BME280;62287;50.858;0.252;2023-05-15T01:31:50;101485.38;;;14.17;40.92
73936;BME280;62287;50.858;0.252;2023-05-15T01:32:28;101485.40;;;14.49;40.83
73936;BME280;62287;50.858;0.252;2023-05-15T01:33:05;101485.84;;;14.51;40.89
73936;BME280;62287;50.858;0.252;2023-05-15T01:33:41;101485.59;;;13.66;40.95
73936;BME280;62287;50.858;0.252;2023-05-15T01:34:14;101482.01;;;14.08;41.09
73936;BME280;62287;50.858;0.252;2023-05-15T01:34:54;101482.84;;;13.92;41.07
73936;BME280;62287;50.858;0.252;2023-05-15T01:35:31;101482.11;;;14.26;41.14
73936;BME280;62287;50.858;0.252;2023-05-15T01:36:08;101482.03;;;14.68;40.73
73936;BME280;62287;50.858;0.252;2023-05-15T01:36:45;101479.79;;;14.16;40.87
73936;BME280;62287;50.858;0.252;2023-05-15T01:37:23;101479.02;;;13.98;41.06
73936;BME280;62287;50.858;0.252;2023-05-15T01:38:05;101479.29;;;14.09;41.11
73936;BME280;62287;50.858;0.252;2023-05-15T01:38:38;101480.36;;;14.20;40.77
73936;BME280;62287;50.858;0.252;2023-05-15T01:39:16;101478.02;;;14.28;40.73
73936;BME280;62287;50.858;0.252;2023-05-15T01:39:52;101477.81;;;15.15;40.17
73936;BME280;62287;50.858;0.252;2023-05-15T01:40:26;101474.35;;;15.04;39.99
73936;BME280;62287;50.858;0.252;2023-05-15T01:41:01;101469.99;;;14.15;40.89
73936;BME280;62287;50.858;0.252;2023-05-15T01:41:48;101472.29;;;14.35;41.07
73936;BME280;62287;50.858;0.252;2023-05-15T01:42:23;101473.37;;;14.95;40.30
73936;BME280;62287;50.858;0.252;2023-05-15T01:43:00;101471.88;;;15.09;40.27
73936;BME280;62287;50.858;0.252;2023-05-15T01:43:34;101471.30;;;15.43;39.78
73936;BME280;62287;50.858;0.252;2023-05-15T01:44:18;101471.42;;;14.99;40.01
73936;BME280;62287;50.858;0.252;2023-05-15T01:44:54;101469.70;;;15.05;40.32
73936;BME280;62287;50.858;0.252;2023-05-15T01:45:26;101469.85;;;15.28;40.10
73936;BME280;62287;50.858;0.252;2023-05-15T01:45:58;101470.69;;;15.32;39.49
73936;BME280;62287;50.858;0.252;2023-05-15T01:46:34;101469.47;;;15.01;39.77
73936;BME280;62287;50.858;0.252;2023-05-15T01:47:11;101470.05;;;14.85;40.30
73936;BME280;62287;50.858;0.252;2023-05-15T01:47:44;101469.39;;;15.28;39.87
73936;BME280;62287;50.858;0.252;2023-05-15T01:48:17;101470.75;;;16.08;39.57
73936;BME280;62287;50.858;0.252;2023-05-15T01:48:50;101471.11;;;15.76;39.44
73936;BME280;62287;50.858;0.252;2023-05-15T01:49:25;101469.85;;;14.57;40.42
73936;BME280;62287;50.858;0.252;2023-05-15T01:50:00;101471.45;;;14.27;41.14
73936;BME280;62287;50.858;0.252;2023-05-15T01:50:33;101472.91;;;14.99;40.21
73936;BME280;62287;50.858;0.252;2023-05-15T01:51:06;101471.01;;;14.85;40.37
73936;BME280;62287;50.858;0.252;2023-05-15T01:51:41;101471.82;;;14.51;40.37
73936;BME280;62287;50.858;0.252;2023-05-15T01:52:19;101469.83;;;14.58;40.60
73936;BME280;62287;50.858;0.252;2023-05-15T01:52:55;101467.36;;;14.52;40.58
73936;BME280;62287;50.858;0.252;2023-05-15T01:53:29;101467.75;;;14.97;40.38
73936;BME280;62287;50.858;0.252;2023-05-15T01:54:02;101468.05;;;15.07;40.10
73936;BME280;62287;50.858;0.252;2023-05-15T01:54:35;101464.83;;;14.57;40.86
73936;BME280;62287;50.858;0.252;2023-05-15T01:55:08;101467.69;;;15.62;40.09
73936;BME280;62287;50.858;0.252;2023-05-15T01:55:39;101467.97;;;15.37;39.87
73936;BME280;62287;50.858;0.252;2023-05-15T01:56:12;101466.19;;;15.22;40.34
73936;BME280;62287;50.858;0.252;2023-05-15T01:56:45;101467.36;;;15.16;39.97
73936;BME280;62287;50.858;0.252;2023-05-15T01:57:17;101466.26;;;15.26;40.15
73936;BME280;62287;50.858;0.252;2023-05-15T01:57:49;101465.13;;;14.12;40.81
73936;BME280;62287;50.858;0.252;2023-05-15T01:58:22;101465.35;;;15.03;40.73
73936;BME280;62287;50.858;0.252;2023-05-15T01:58:56;101463.00;;;14.97;39.92
73936;BME280;62287;50.858;0.252;2023-05-15T01:59:28;101465.06;;;15.10;40.04
73936;BME280;62287;50.858;0.252;2023-05-15T02:00:00;101463.02;;;14.89;40.63
73936;BME280;62287;50.858;0.252;2023-05-15T02:00:32;101464.39;;;15.07;40.41
73936;BME280;62287;50.858;0.252;2023-05-15T02:01:04;101463.83;;;14.54;40.31
73936;BME280;62287;50.858;0.252;2023-05-15T02:01:36;101462.91;;;14.15;40.79
73936;BME280;62287;50.858;0.252;2023-05-15T02:02:09;101462.57;;;14.81;40.72
73936;BME280;62287;50.858;0.252;2023-05-15T02:02:40;101464.10;;;13.87;41.09
73936;BME280;62287;50.858;0.252;2023-05-15T02:03:12;101463.03;;;14.44;40.82
73936;BME280;62287;50.858;0.252;2023-05-15T02:03:45;101463.20;;;14.29;40.79
73936;BME280;62287;50.858;0.252;2023-05-15T02:04:17;101462.66;;;14.47;40.36
73936;BME280;62287;50.858;0.252;2023-05-15T02:04:49;101462.39;;;14.80;40.35
73936;BME280;62287;50.858;0.252;2023-05-15T02:05:21;101462.14;;;14.69;40.44
73936;BME280;62287;50.858;0.252;2023-05-15T02:05:53;101464.72;;;14.89;40.49
73936;BME280;62287;50.858;0.252;2023-05-15T02:06:24;101464.39;;;15.20;40.04
73936;BME280;62287;50.858;0.252;2023-05-15T02:06:56;101464.00;;;15.04;40.37
73936;BME280;62287;50.858;0.252;2023-05-15T02:07:28;101464.42;;;14.49;40.44
73936;BME280;62287;50.858;0.252;2023-05-15T02:08:01;101465.38;;;15.59;39.52
73936;BME280;62287;50.858;0.252;2023-05-15T02:08:33;101464.45;;;15.65;39.43
73936;BME280;62287;50.858;0.252;2023-05-15T02:09:05;101466.00;;;15.78;39.60
73936;BME280;62287;50.858;0.252;2023-05-15T02:09:37;101466.58;;;15.72;39.60
73936;BME280;62287;50.858;0.252;2023-05-15T02:10:11;101465.91;;;15.61;39.08
73936;BME280;62287;50.858;0.252;2023-05-15T02:10:42;101466.69;;;15.41;39.86
73936;BME280;62287;50.858;0.252;2023-05-15T02:11:14;101468.32;;;15.12;39.86
73936;BME280;62287;50.858;0.252;2023-05-15T02:11:45;101468.26;;;15.19;39.67
73936;BME280;62287;50.858;0.252;2023-05-15T02:12:17;101466.03;;;13.91;40.73
73936;BME280;62287;50.858;0.252;2023-05-15T02:12:49;101467.39;;;15.52;40.07
73936;BME280;62287;50.858;0.252;2023-05-15T02:13:21;101468.78;;;15.38;39.63
73936;BME280;62287;50.858;0.252;2023-05-15T02:13:56;101466.04;;;15.15;39.82
73936;BME280;62287;50.858;0.252;2023-05-15T02:14:28;101466.13;;;15.84;39.53
73936;BME280;62287;50.858;0.252;2023-05-15T02:15:01;101467.47;;;15.10;40.05
73936;BME280;62287;50.858;0.252;2023-05-15T02:15:33;101465.22;;;15.18;39.85
73936;BME280;62287;50.858;0.252;2023-05-15T02:16:06;101463.45;;;15.78;39.47
73936;BME280;62287;50.858;0.252;2023-05-15T02:16:37;101465.40;;;15.23;39.81
73936;BME280;62287;50.858;0.252;2023-05-15T02:17:08;101466.62;;;15.13;40.00
73936;BME280;62287;50.858;0.252;2023-05-15T02:17:40;101465.98;;;15.50;39.42
73936;BME280;62287;50.858;0.252;2023-05-15T02:18:11;101468.40;;;15.61;39.07
73936;BME280;62287;50.858;0.252;2023-05-15T02:18:42;101467.26;;;16.05;38.73
73936;BME280;62287;50.858;0.252;2023-05-15T02:19:13;101469.77;;;15.84;39.14
73936;BME280;62287;50.858;0.252;2023-05-15T02:19:44;101470.87;;;14.77;39.81
73936;BME280;62287;50.858;0.252;2023-05-15T02:20:15;101470.02;;;15.51;39.39
73936;BME280;62287;50.858;0.252;2023-05-15T02:20:46;101472.24;;;15.10;39.19
73936;BME280;62287;50.858;0.252;2023-05-15T02:21:17;101471.92;;;16.59;38.86
73936;BME280;62287;50.858;0.252;2023-05-15T02:21:48;101472.73;;;15.89;38.87
73936;BME280;62287;50.858;0.252;2023-05-15T02:22:19;101473.20;;;15.38;39.43
73936;BME280;62287;50.858;0.252;2023-05-15T02:22:50;101473.13;;;15.60;39.32
73936;BME280;62287;50.858;0.252;2023-05-15T02:23:21;101477.01;;;15.53;39.05
73936;BME280;62287;50.858;0.252;2023-05-15T02:23:52;101477.37;;;15.39;39.58
73936;BME280;62287;50.858;0.252;2023-05-15T02:24:23;101477.29;;;15.13;39.73
73936;BME280;62287;50.858;0.252;2023-05-15T02:24:54;101476.08;;;15.43;39.56
73936;BME280;62287;50.858;0.252;2023-05-15T02:25:33;101477.63;;;15.23;39.45
73936;BME280;62287;50.858;0.252;2023-05-15T02:26:13;101477.50;;;14.27;40.20
73936;BME280;62287;50.858;0.252;2023-05-15T02:26:59;101475.56;;;14.61;40.32
73936;BME280;62287;50.858;0.252;2023-05-15T02:27:36;101476.18;;;14.33;40.93
73936;BME280;62287;50.858;0.252;2023-05-15T02:28:14;101475.47;;;14.41;40.73
73936;BME280;62287;50.858;0.252;2023-05-15T02:29:09;101479.26;;;14.66;40.38
73936;BME280;62287;50.858;0.252;2023-05-15T02:29:53;101474.52;;;14.53;40.10
73936;BME280;62287;50.858;0.252;2023-05-15T02:30:34;101475.55;;;14.77;40.21
73936;BME280;62287;50.858;0.252;2023-05-15T02:31:16;101475.92;;;14.76;40.65
73936;BME280;62287;50.858;0.252;2023-05-15T02:31:54;101473.42;;;14.39;41.04
73936;BME280;62287;50.858;0.252;2023-05-15T02:32:37;101475.32;;;15.68;39.41
73936;BME280;62287;50.858;0.252;2023-05-15T02:33:18;101476.02;;;15.34;40.01
73936;BME280;62287;50.858;0.252;2023-05-15T02:34:02;101476.40;;;15.08;39.99
73936;BME280;62287;50.858;0.252;2023-05-15T02:34:43;101476.35;;;16.24;39.07
73936;BME280;62287;50.858;0.252;2023-05-15T02:35:24;101475.32;;;15.67;39.55
73936;BME280;62287;50.858;0.252;2023-05-15T02:36:00;101477.25;;;14.96;40.50
73936;BME280;62287;50.858;0.252;2023-05-15T02:36:32;101478.06;;;15.11;40.37
73936;BME280;62287;50.858;0.252;2023-05-15T02:37:12;101476.37;;;14.86;40.17
73936;BME280;62287;50.858;0.252;2023-05-15T02:37:47;101472.04;;;14.46;40.80
73936;BME280;62287;50.858;0.252;2023-05-15T02:38:24;101473.89;;;15.27;40.44
73936;BME280;62287;50.858;0.252;2023-05-15T02:38:58;101474.19;;;14.74;40.62
73936;BME280;62287;50.858;0.252;2023-05-15T02:39:31;101473.88;;;15.91;39.61
73936;BME280;62287;50.858;0.252;2023-05-15T02:40:04;101473.94;;;15.25;39.79
73936;BME280;62287;50.858;0.252;2023-05-15T02:40:39;101473.40;;;15.52;39.70
73936;BME280;62287;50.858;0.252;2023-05-15T02:41:10;101473.90;;;15.27;40.05
73936;BME280;62287;50.858;0.252;2023-05-15T02:41:43;101474.85;;;16.03;39.20
73936;BME280;62287;50.858;0.252;2023-05-15T02:42:14;101476.55;;;14.77;39.81
73936;BME280;62287;50.858;0.252;2023-05-15T02:42:47;101474.06;;;13.99;40.80
73936;BME280;62287;50.858;0.252;2023-05-15T02:43:18;101476.04;;;13.89;41.24
73936;BME280;62287;50.858;0.252;2023-05-15T02:43:51;101479.72;;;13.85;41.32
73936;BME280;62287;50.858;0.252;2023-05-15T02:44:22;101476.18;;;14.20;41.01
73936;BME280;62287;50.858;0.252;2023-05-15T02:44:54;101478.03;;;14.01;41.11
73936;BME280;62287;50.858;0.252;2023-05-15T02:45:27;101477.08;;;14.34;41.31
73936;BME280;62287;50.858;0.252;2023-05-15T02:45:59;101474.22;;;14.68;40.62
73936;BME280;62287;50.858;0.252;2023-05-15T02:46:30;101475.81;;;14.57;40.60
73936;BME280;62287;50.858;0.252;2023-05-15T02:47:02;101476.47;;;14.12;41.45
73936;BME280;62287;50.858;0.252;2023-05-15T02:47:36;101474.58;;;14.77;40.82
73936;BME280;62287;50.858;0.252;2023-05-15T02:48:08;101473.46;;;14.34;40.77
73936;BME280;62287;50.858;0.252;2023-05-15T02:48:40;101477.43;;;15.05;40.33
73936;BME280;62287;50.858;0.252;2023-05-15T02:49:13;101475.93;;;15.38;39.90
73936;BME280;62287;50.858;0.252;2023-05-15T02:49:44;101477.07;;;14.34;40.56
73936;BME280;62287;50.858;0.252;2023-05-15T02:50:16;101474.50;;;15.85;39.69
73936;BME280;62287;50.858;0.252;2023-05-15T02:50:48;101475.87;;;15.89;39.07
73936;BME280;62287;50.858;0.252;2023-05-15T02:51:19;101474.32;;;16.53;39.21
73936;BME280;62287;50.858;0.252;2023-05-15T02:51:50;101474.14;;;16.10;38.87
73936;BME280;62287;50.858;0.252;2023-05-15T02:52:22;101472.52;;;16.32;39.06
73936;BME280;62287;50.858;0.252;2023-05-15T02:53:01;101473.44;;;14.85;39.64
73936;BME280;62287;50.858;0.252;2023-05-15T02:53:33;101470.12;;;15.22;39.49
73936;BME280;62287;50.858;0.252;2023-05-15T02:54:08;101468.44;;;15.83;39.37
73936;BME280;62287;50.858;0.252;2023-05-15T02:54:40;101469.29;;;15.75;39.05
73936;BME280;62287;50.858;0.252;2023-05-15T02:55:11;101466.80;;;14.83;39.51